Time;durP1;ratioP1;P1;durP2;ratioP2;P2;SDS_P1;SDS_P2;PMS_P1;PMS_P2;Temp;Humidity;BMP_temperature;BMP_pressure;BME280_temperature;BME280_humidity;BME280_pressure;Samples;Min_cycle;Max_cycle;Signal;HPM_P1;HPM_P2
2022/05/01 00:01:42;;;;;;;;;10.33;10.00;;;;;11.62;47.72;102001.13;4996439;28;45412;-66
2022/05/01 00:04:08;;;;;;;;;12.00;11.00;;;;;11.51;48.20;101974.47;5007047;28;45516;-67
2022/05/01 00:06:33;;;;;;;;;14.00;12.33;;;;;11.55;47.95;101983.91;5016575;28;45439;-67
2022/05/01 00:09:00;;;;;;;;;14.00;12.00;;;;;11.47;48.42;101973.00;5016387;28;46787;-67
2022/05/01 00:11:26;;;;;;;;;11.33;11.00;;;;;11.62;47.73;101998.47;4998249;28;45282;-68
2022/05/01 00:13:51;;;;;;;;;15.67;13.00;;;;;11.52;48.33;101981.47;4994396;28;45579;-67
2022/05/01 00:16:17;;;;;;;;;12.67;12.67;;;;;11.62;48.15;101993.13;4996255;28;45321;-67
2022/05/01 00:18:43;;;;;;;;;16.67;12.00;;;;;11.06;48.60;101909.69;5005577;28;48620;-66
2022/05/01 00:21:08;;;;;;;;;15.33;14.67;;;;;11.51;48.20;101985.97;5015847;28;45570;-68
2022/05/01 00:23:34;;;;;;;;;13.33;12.00;;;;;11.20;49.01;101947.53;5015690;28;45279;-67
2022/05/01 00:26:02;;;;;;;;;12.33;9.33;;;;;11.37;48.83;101983.50;5000460;28;45228;-67
2022/05/01 00:28:28;;;;;;;;;15.33;14.00;;;;;11.18;49.52;101962.78;5013169;28;46481;-67
2022/05/01 00:30:54;;;;;;;;;16.00;16.00;;;;;11.42;48.93;101980.53;5012940;28;45504;-66
2022/05/01 00:38:48;;;;;;;;;17.33;12.67;;;;;11.27;49.18;101972.75;5015609;28;45461;-67
2022/05/01 00:41:14;;;;;;;;;10.33;9.00;;;;;11.24;49.79;101983.63;4998009;28;45337;-66
2022/05/01 00:43:58;;;;;;;;;17.67;16.67;;;;;10.69;49.74;101885.91;5014238;28;45297;-67
2022/05/01 00:46:27;;;;;;;;;18.00;14.33;;;;;11.12;49.77;101967.75;4978221;28;45523;-67
2022/05/01 00:48:53;;;;;;;;;15.33;15.00;;;;;10.97;49.91;101943.16;4977485;28;47079;-66
2022/05/01 00:51:20;;;;;;;;;16.00;15.33;;;;;11.10;50.03;101986.50;4995935;28;45421;-66
2022/05/01 00:53:49;;;;;;;;;16.67;16.67;;;;;10.90;50.14;101931.28;4998176;28;45267;-66
2022/05/01 00:56:16;;;;;;;;;17.33;16.00;;;;;11.09;49.90;101963.50;5015949;28;45552;-67
2022/05/01 00:58:42;;;;;;;;;23.00;17.00;;;;;10.90;50.55;101936.59;5016107;28;46202;-67
2022/05/01 01:01:10;;;;;;;;;15.67;14.33;;;;;11.05;50.53;101959.41;5016576;28;45275;-66
2022/05/01 01:03:39;;;;;;;;;16.67;16.00;;;;;11.05;50.63;101967.38;5015293;28;45318;-67
2022/05/01 01:06:04;;;;;;;;;18.67;15.67;;;;;11.04;50.66;101976.34;5010291;28;45440;-66
2022/05/01 01:08:30;;;;;;;;;12.00;12.00;;;;;10.84;50.31;101915.81;4996172;28;45381;-66
2022/05/01 01:10:56;;;;;;;;;12.33;12.33;;;;;11.17;50.59;101966.41;4978068;28;45397;-66
2022/05/01 01:13:28;;;;;;;;;16.67;14.67;;;;;11.09;50.49;101952.03;4995892;28;45242;-66
2022/05/01 01:15:55;;;;;;;;;20.67;18.00;;;;;10.84;50.58;101940.59;4996351;28;45659;-67
2022/05/01 01:18:22;;;;;;;;;17.00;16.00;;;;;10.86;50.90;101940.47;5015416;28;46850;-67
2022/05/01 01:20:47;;;;;;;;;17.67;14.00;;;;;10.97;50.96;101959.97;5015266;28;45359;-67
2022/05/01 01:23:14;;;;;;;;;15.33;15.33;;;;;10.89;51.08;101962.38;5013711;28;45307;-65
2022/05/01 01:25:40;;;;;;;;;16.33;16.33;;;;;10.69;51.53;101944.41;4981622;28;45506;-67
2022/05/01 01:28:08;;;;;;;;;17.33;16.00;;;;;10.80;51.26;101951.56;4995513;28;46136;-66
2022/05/01 01:33:19;;;;;;;;;19.67;19.00;;;;;10.69;51.84;101940.91;5018652;28;45479;-67
2022/05/01 01:35:48;;;;;;;;;16.67;14.00;;;;;10.82;51.59;101954.97;5000943;28;45431;-67
2022/05/01 01:38:13;;;;;;;;;20.33;19.00;;;;;10.86;51.54;101959.94;4998908;28;46290;-67
2022/05/01 01:40:48;;;;;;;;;17.67;14.33;;;;;10.92;51.57;101955.97;4998991;28;45302;-67
2022/05/01 01:43:18;;;;;;;;;17.67;15.33;;;;;10.81;51.54;101954.13;4999190;28;45321;-68
2022/05/01 01:45:43;;;;;;;;;19.00;18.33;;;;;10.76;51.93;101964.25;5014914;28;45326;-67
2022/05/01 01:48:11;;;;;;;;;20.33;16.00;;;;;10.61;51.79;101937.00;5016948;28;48352;-66
2022/05/01 01:50:40;;;;;;;;;19.33;19.33;;;;;10.75;52.16;101943.09;5016566;28;45723;-67
2022/05/01 01:53:07;;;;;;;;;19.67;19.67;;;;;10.83;51.82;101956.69;5000542;28;45386;-66
2022/05/01 01:55:39;;;;;;;;;20.50;19.50;;;;;10.86;52.04;101951.13;5017470;28;45459;-68
2022/05/01 01:58:05;;;;;;;;;21.00;17.00;;;;;8.97;52.45;101659.69;4998316;28;45299;-67
2022/05/01 02:00:32;;;;;;;;;26.67;22.67;;;;;10.51;52.71;101945.78;4998281;28;45390;-67
2022/05/01 02:03:05;;;;;;;;;19.00;18.00;;;;;10.47;53.01;101939.84;4996974;28;45366;-67
2022/05/01 02:05:31;;;;;;;;;23.00;19.67;;;;;10.64;53.03;101947.41;4998836;28;45441;-66
2022/05/01 02:07:58;;;;;;;;;20.00;18.00;;;;;10.54;53.12;101946.41;4998490;28;45637;-66
2022/05/01 02:10:24;;;;;;;;;23.00;21.00;;;;;10.42;53.62;101947.31;4997178;28;45458;-67
2022/05/01 02:12:50;;;;;;;;;22.00;17.33;;;;;10.45;53.52;101947.09;4998155;28;45346;-66
2022/05/01 02:15:19;;;;;;;;;20.33;20.33;;;;;10.38;53.53;101929.88;5010035;28;45257;-68
2022/05/01 02:17:45;;;;;;;;;21.67;21.67;;;;;10.48;53.52;101938.03;5017755;28;45789;-67
2022/05/01 02:20:11;;;;;;;;;21.67;20.33;;;;;10.31;53.54;101924.19;5016201;28;45382;-67
2022/05/01 02:22:40;;;;;;;;;19.67;17.00;;;;;10.45;53.57;101947.09;5017301;28;45564;-67
2022/05/01 02:25:07;;;;;;;;;23.33;21.33;;;;;10.39;53.71;101920.09;5007782;28;45453;-67
2022/05/01 02:27:33;;;;;;;;;24.00;19.67;;;;;10.56;53.36;101944.47;4998169;28;46642;-66
2022/05/01 02:29:59;;;;;;;;;18.00;17.67;;;;;9.97;53.28;101850.53;4998189;28;45422;-67
2022/05/01 02:32:24;;;;;;;;;23.67;21.33;;;;;10.09;53.63;101843.47;4998324;28;45717;-65
2022/05/01 02:34:49;;;;;;;;;24.00;21.67;;;;;10.72;52.86;101945.97;5005720;28;45440;-68
2022/05/01 02:37:15;;;;;;;;;27.33;23.00;;;;;10.53;53.50;101934.06;5017668;28;45633;-65
2022/05/01 02:39:40;;;;;;;;;26.00;24.67;;;;;10.43;53.89;101930.41;5017450;28;45476;-66
2022/05/01 02:42:06;;;;;;;;;21.67;21.00;;;;;10.27;53.84;101912.09;5017677;28;45385;-67
2022/05/01 02:44:32;;;;;;;;;20.67;20.67;;;;;9.36;54.14;101754.97;4997196;28;45570;-66
2022/05/01 02:46:57;;;;;;;;;17.33;16.67;;;;;10.49;54.02;101929.09;4997371;28;45753;-67
2022/05/01 02:49:23;;;;;;;;;17.00;16.67;;;;;10.57;53.60;101918.72;4998731;28;45392;-66
2022/05/01 02:51:49;;;;;;;;;23.00;20.67;;;;;10.40;53.68;101896.06;5017570;28;45337;-67
2022/05/01 02:54:14;;;;;;;;;25.00;20.33;;;;;10.60;53.17;101929.97;5017107;28;45836;-65
2022/05/01 02:56:43;;;;;;;;;23.00;19.67;;;;;10.51;53.54;101914.72;4999146;28;47927;-65
2022/05/01 02:59:09;;;;;;;;;19.33;19.33;;;;;10.47;53.39;101918.56;5017142;28;45543;-68
2022/05/01 03:01:38;;;;;;;;;23.00;18.67;;;;;10.40;53.52;101912.00;5017150;28;45232;-67
2022/05/01 03:04:04;;;;;;;;;24.00;24.00;;;;;10.41;53.91;101908.41;5003212;28;45484;-67
2022/05/01 03:06:30;;;;;;;;;24.33;21.33;;;;;10.25;53.48;101881.28;5017241;28;46391;-67
2022/05/01 03:08:56;;;;;;;;;23.67;22.67;;;;;10.37;53.86;101912.22;5015971;28;46321;-64
2022/05/01 03:11:21;;;;;;;;;19.67;19.67;;;;;10.23;54.20;101900.00;5017351;28;45239;-67
2022/05/01 03:13:47;;;;;;;;;22.00;21.00;;;;;10.03;54.22;101877.50;5005011;28;45494;-67
2022/05/01 03:16:13;;;;;;;;;21.67;21.67;;;;;10.15;54.53;101893.50;4997017;28;46424;-67
2022/05/01 03:24:06;;;;;;;;;23.33;21.67;;;;;10.23;54.45;101910.63;5016640;28;45506;-67
2022/05/01 03:26:33;;;;;;;;;21.00;20.33;;;;;9.58;54.68;101812.63;5016885;28;45661;-65
2022/05/01 03:28:58;;;;;;;;;23.67;18.00;;;;;10.12;54.54;101897.22;5016840;28;45212;-66
2022/05/01 03:31:27;;;;;;;;;19.33;18.00;;;;;10.00;54.51;101876.88;5016922;28;45672;-66
2022/05/01 03:33:53;;;;;;;;;24.67;22.00;;;;;10.09;54.80;101896.63;5004718;28;45342;-67
2022/05/01 03:36:19;;;;;;;;;20.33;20.00;;;;;9.97;54.78;101879.75;4996744;28;46376;-66
2022/05/01 03:38:44;;;;;;;;;23.33;19.67;;;;;9.88;54.98;101875.97;4996955;28;45456;-68
2022/05/01 03:41:13;;;;;;;;;19.67;19.00;;;;;10.02;54.96;101891.75;4996973;28;45409;-66
2022/05/01 03:43:39;;;;;;;;;18.67;18.33;;;;;9.97;54.60;101872.63;5007344;28;45406;-66
2022/05/01 03:46:05;;;;;;;;;22.00;19.00;;;;;10.07;54.48;101883.44;5016558;28;45746;-67
2022/05/01 03:48:30;;;;;;;;;19.00;17.67;;;;;10.11;54.56;101894.69;5016529;28;45357;-65
2022/05/01 03:50:58;;;;;;;;;1.00;0.00;;;;;9.97;54.70;101872.63;5016327;28;45252;-69
2022/05/01 03:53:24;;;;;;;;;18.33;18.00;;;;;10.10;54.87;101887.69;5015942;28;45443;-67
2022/05/01 03:55:49;;;;;;;;;23.00;21.00;;;;;10.13;54.97;101890.09;5016230;28;46397;-65
2022/05/01 03:58:15;;;;;;;;;25.67;20.33;;;;;10.00;54.69;101875.06;5016415;28;45550;-67
2022/05/01 04:00:44;;;;;;;;;21.33;19.33;;;;;9.27;55.12;101770.72;5016403;28;45338;-66
2022/05/01 04:03:12;;;;;;;;;23.33;22.33;;;;;9.82;55.43;101873.78;5010253;28;45325;-66
2022/05/01 04:05:38;;;;;;;;;25.00;22.67;;;;;9.21;55.47;101782.63;4996176;28;46511;-67
2022/05/01 04:08:03;;;;;;;;;22.00;20.67;;;;;9.77;55.08;101870.56;4994930;28;45372;-68
2022/05/01 04:10:29;;;;;;;;;23.33;23.00;;;;;9.84;55.49;101893.09;4996785;28;45252;-67
2022/05/01 04:12:54;;;;;;;;;28.33;27.33;;;;;9.83;55.23;101872.81;5000298;28;45433;-66
2022/05/01 04:15:19;;;;;;;;;21.67;21.33;;;;;9.16;55.35;101766.16;5016492;28;45474;-66
2022/05/01 04:17:45;;;;;;;;;23.33;23.33;;;;;9.50;55.79;101835.41;5016283;28;45383;-66
2022/05/01 04:20:15;;;;;;;;;26.33;25.33;;;;;9.74;56.27;101892.03;5015769;28;45292;-67
2022/05/01 04:22:44;;;;;;;;;27.33;25.67;;;;;8.93;55.89;101745.75;4997860;28;45599;-66
2022/05/01 04:25:19;;;;;;;;;25.67;22.67;;;;;9.77;56.05;101886.50;5016027;28;46082;-66
2022/05/01 04:27:47;;;;;;;;;29.33;26.33;;;;;9.70;56.05;101883.47;4997956;28;45299;-67
2022/05/01 04:30:14;;;;;;;;;30.00;24.33;;;;;9.54;56.50;101868.72;4998291;28;45406;-67
2022/05/01 04:32:50;;;;;;;;;24.67;23.67;;;;;9.64;56.47;101877.75;5015423;28;45498;-66
2022/05/01 04:35:22;;;;;;;;;18.33;18.00;;;;;9.69;56.70;101889.72;5015764;28;46038;-68
2022/05/01 04:37:48;;;;;;;;;20.67;19.33;;;;;9.66;56.44;101881.13;4997561;28;46225;-66
2022/05/01 04:40:14;;;;;;;;;26.33;23.00;;;;;9.59;56.47;101861.28;5015600;28;45239;-66
2022/05/01 04:42:41;;;;;;;;;24.33;21.33;;;;;9.72;56.53;101876.22;5014847;28;45213;-66
2022/05/01 04:45:07;;;;;;;;;19.00;19.00;;;;;9.66;56.54;101873.19;4995652;28;45861;-67
2022/05/01 04:47:33;;;;;;;;;21.33;19.67;;;;;9.75;56.85;101888.44;4995906;28;45349;-67
2022/05/01 04:49:58;;;;;;;;;25.67;23.67;;;;;9.56;55.87;101842.91;5003390;28;45492;-66
2022/05/01 04:52:24;;;;;;;;;24.67;23.33;;;;;9.83;56.43;101890.56;5015717;28;45517;-67
2022/05/01 04:54:49;;;;;;;;;20.67;20.67;;;;;9.71;56.39;101895.78;5014820;28;45599;-67
2022/05/01 04:57:15;;;;;;;;;24.33;21.33;;;;;9.68;56.23;101879.22;5015942;28;46767;-67
2022/05/01 04:59:41;;;;;;;;;24.67;23.00;;;;;9.75;56.61;101893.75;5015467;28;45576;-67
2022/05/01 05:02:06;;;;;;;;;31.00;28.67;;;;;9.64;56.35;101864.47;5007686;28;45591;-66
2022/05/01 05:04:31;;;;;;;;;21.00;20.00;;;;;9.52;56.62;101855.56;5017597;28;45420;-66
2022/05/01 05:06:57;;;;;;;;;28.67;24.00;;;;;9.73;56.48;101901.81;5019259;28;45536;-66
2022/05/01 05:12:07;;;;;;;;;25.67;24.67;;;;;9.69;56.41;101894.19;5009366;28;45423;-66
2022/05/01 05:14:33;;;;;;;;;24.67;23.33;;;;;7.90;56.43;101590.41;4981420;28;48455;-67
2022/05/01 05:16:58;;;;;;;;;23.67;22.33;;;;;9.54;55.77;101858.13;4997725;28;45266;-68
2022/05/01 05:19:23;;;;;;;;;23.00;21.00;;;;;9.84;56.34;101910.84;5000646;28;45691;-66
2022/05/01 05:21:49;;;;;;;;;28.00;24.00;;;;;9.97;55.86;101904.50;4993716;28;45535;-65
2022/05/01 05:24:14;;;;;;;;;27.67;25.67;;;;;9.41;55.89;101821.84;4998865;28;45593;-68
2022/05/01 05:26:39;;;;;;;;;25.67;24.33;;;;;10.00;55.58;101906.94;5011045;28;45503;-66
2022/05/01 05:29:05;;;;;;;;;22.00;19.00;;;;;10.06;56.11;101908.31;5018678;28;45416;-67
2022/05/01 05:31:30;;;;;;;;;34.33;29.00;;;;;10.04;55.71;101927.03;5019109;28;45470;-66
2022/05/01 05:33:56;;;;;;;;;25.67;23.33;;;;;10.09;55.28;101913.41;5018709;28;46443;-68
2022/05/01 05:36:21;;;;;;;;;25.67;24.00;;;;;10.10;55.57;101919.56;5009512;28;45243;-68
2022/05/01 05:38:47;;;;;;;;;31.33;29.33;;;;;10.20;55.02;101923.22;4999177;28;45447;-65
2022/05/01 05:41:13;;;;;;;;;24.67;24.67;;;;;10.14;55.49;101907.75;4999499;28;45440;-67
2022/05/01 05:43:39;;;;;;;;;29.33;29.00;;;;;10.31;54.93;101918.00;4998712;28;45498;-68
2022/05/01 05:46:08;;;;;;;;;18.33;18.33;;;;;10.21;55.05;101890.41;4998812;28;45501;-66
2022/05/01 05:48:33;;;;;;;;;34.67;30.67;;;;;10.34;54.75;101908.00;4998644;28;45319;-66
2022/05/01 05:50:58;;;;;;;;;26.00;24.33;;;;;10.40;54.21;101900.53;5014458;28;45461;-65
2022/05/01 05:53:24;;;;;;;;;28.33;27.33;;;;;10.61;54.39;101913.09;5018217;28;45548;-68
2022/05/01 05:55:49;;;;;;;;;29.00;27.00;;;;;10.57;53.70;101897.44;5014350;28;45475;-65
2022/05/01 05:58:15;;;;;;;;;24.67;24.67;;;;;10.63;53.92;101913.81;4981074;28;45320;-66
2022/05/01 06:00:41;;;;;;;;;23.33;20.33;;;;;10.73;53.80;101899.81;4980954;28;45429;-67
2022/05/01 06:03:06;;;;;;;;;34.33;27.67;;;;;10.67;53.57;101874.53;4998836;28;45543;-66
2022/05/01 06:05:32;;;;;;;;;32.00;27.67;;;;;11.00;53.19;101905.66;4997969;28;45294;-67
2022/05/01 06:07:57;;;;;;;;;23.33;22.00;;;;;11.00;53.03;101894.16;5017191;28;45226;-67
2022/05/01 06:10:22;;;;;;;;;33.67;31.00;;;;;11.16;52.77;101914.16;5018991;28;45339;-66
2022/05/01 06:12:48;;;;;;;;;23.67;20.67;;;;;10.81;52.47;101860.16;5018788;28;45533;-66
2022/05/01 06:15:13;;;;;;;;;31.33;29.67;;;;;10.61;52.48;101793.41;5017943;28;45495;-67
2022/05/01 06:17:38;;;;;;;;;36.67;29.67;;;;;11.59;51.73;101916.09;4999516;28;45270;-66
2022/05/01 06:20:04;;;;;;;;;35.00;31.67;;;;;11.93;50.99;101900.97;5006468;28;45337;-66
2022/05/01 06:22:30;;;;;;;;;32.33;26.33;;;;;12.58;50.05;101915.16;4996264;28;47605;-66
2022/05/01 06:24:55;;;;;;;;;35.67;32.00;;;;;12.89;48.94;101906.28;4998100;28;45281;-67
2022/05/01 06:27:21;;;;;;;;;28.33;27.67;;;;;13.34;47.46;101905.97;4997576;28;45344;-67
2022/05/01 06:29:46;;;;;;;;;33.33;30.67;;;;;13.40;46.44;101881.41;4998631;28;45412;-65
2022/05/01 06:32:15;;;;;;;;;34.33;31.33;;;;;13.83;46.27;101907.03;4997867;28;46277;-66
2022/05/01 06:34:41;;;;;;;;;32.67;29.00;;;;;14.31;45.76;101912.44;4996576;28;45602;-66
2022/05/01 06:37:07;;;;;;;;;32.33;29.33;;;;;14.71;44.89;101887.38;4982696;28;45333;-68
2022/05/01 06:39:33;;;;;;;;;34.67;31.67;;;;;15.09;43.29;101914.09;4984716;28;45297;-67
2022/05/01 06:41:58;;;;;;;;;33.67;31.33;;;;;14.94;43.37;101904.81;4997671;28;45924;-67
2022/05/01 06:44:23;;;;;;;;;38.33;30.67;;;;;14.85;42.93;101890.47;4997999;28;45349;-67
2022/05/01 06:46:49;;;;;;;;;37.67;33.00;;;;;15.10;42.87;101926.50;4987194;28;45936;-66
2022/05/01 06:49:14;;;;;;;;;33.33;31.33;;;;;15.43;42.56;101932.34;4978444;28;45517;-66
2022/05/01 06:51:39;;;;;;;;;40.67;34.33;;;;;15.68;41.67;101936.22;4977755;28;45460;-67
2022/05/01 06:54:10;;;;;;;;;30.67;28.00;;;;;14.88;41.57;101809.84;4978018;28;45484;-68
2022/05/01 06:56:41;;;;;;;;;25.33;25.00;;;;;15.90;41.21;101940.31;4989874;28;45232;-69
2022/05/01 06:59:06;;;;;;;;;31.00;29.00;;;;;16.05;41.01;101920.91;5012231;28;45457;-68
2022/05/01 07:01:32;;;;;;;;;34.67;28.00;;;;;16.27;40.82;101922.31;4997353;28;45630;-67
2022/05/01 07:03:57;;;;;;;;;27.00;26.67;;;;;16.49;40.55;101921.00;4997727;28;45439;-66
2022/05/01 07:06:23;;;;;;;;;36.33;30.33;;;;;14.99;39.78;101682.94;4997687;28;45361;-68
2022/05/01 07:08:48;;;;;;;;;35.00;29.67;;;;;16.74;39.75;101919.38;4991836;28;45883;-71
2022/05/01 07:11:14;;;;;;;;;33.00;30.67;;;;;16.90;39.34;101889.97;4995311;28;45380;-68
2022/05/01 07:13:40;;;;;;;;;29.33;26.33;;;;;17.40;38.45;101910.75;4978242;28;45263;-67
2022/05/01 07:16:08;;;;;;;;;35.67;29.00;;;;;17.61;37.98;101916.56;4981729;28;45812;-69
2022/05/01 07:18:34;;;;;;;;;26.67;23.00;;;;;17.87;37.10;101902.25;4985471;28;45464;-68
2022/05/01 07:20:59;;;;;;;;;28.33;24.67;;;;;18.21;36.69;101915.59;4995225;28;47466;-67
2022/05/01 07:23:26;;;;;;;;;31.00;29.33;;;;;17.73;36.62;101879.50;4998523;28;45475;-67
2022/05/01 07:25:51;;;;;;;;;32.00;29.00;;;;;17.93;36.27;101880.91;4996659;28;45410;-67
2022/05/01 07:28:17;;;;;;;;;29.67;27.33;;;;;18.03;36.33;101901.47;4998059;28;45418;-70
2022/05/01 07:30:42;;;;;;;;;30.00;26.67;;;;;17.53;36.83;101892.34;5000493;28;45321;-67
2022/05/01 07:33:08;;;;;;;;;29.67;29.33;;;;;17.33;37.03;101882.84;4995704;28;45377;-67
2022/05/01 07:35:33;;;;;;;;;30.33;25.33;;;;;17.04;37.69;101893.94;4997286;28;45273;-66
2022/05/01 07:37:59;;;;;;;;;33.33;32.00;;;;;17.47;37.64;101911.81;4997267;28;45274;-67
2022/05/01 07:40:24;;;;;;;;;24.33;24.33;;;;;17.52;37.03;101911.31;5010037;28;46880;-67
2022/05/01 07:42:51;;;;;;;;;23.67;22.67;;;;;17.77;37.31;101917.69;5016641;28;45287;-68
2022/05/01 07:45:17;;;;;;;;;30.00;29.67;;;;;17.81;36.39;101862.53;5012399;28;45413;-68
2022/05/01 07:47:42;;;;;;;;;32.33;28.33;;;;;18.09;36.32;101876.59;4998572;28;45536;-67
2022/05/01 07:50:08;;;;;;;;;26.67;24.33;;;;;18.09;35.94;101845.13;4984484;28;47309;-67
2022/05/01 07:52:37;;;;;;;;;24.00;22.33;;;;;18.61;35.38;101878.97;5015561;28;45452;-69
2022/05/01 07:55:03;;;;;;;;;28.67;24.67;;;;;18.91;35.05;101881.00;5015883;28;45286;-69
2022/05/01 07:57:29;;;;;;;;;36.33;33.00;;;;;18.70;34.48;101905.78;5015361;28;45453;-67
2022/05/01 07:59:55;;;;;;;;;27.67;25.33;;;;;18.26;34.87;101897.13;5005606;28;45472;-66
2022/05/01 08:02:21;;;;;;;;;26.33;25.00;;;;;18.27;35.33;101896.13;5003797;28;45214;-70
2022/05/01 08:04:47;;;;;;;;;26.00;22.67;;;;;17.27;34.60;101637.06;5009219;28;45509;-69
2022/05/01 08:07:13;;;;;;;;;23.67;22.00;;;;;19.12;34.05;101883.97;5011544;28;45668;-69
2022/05/01 08:09:38;;;;;;;;;26.00;23.67;;;;;19.44;33.02;101887.59;5014827;28;46284;-69
2022/05/01 08:12:05;;;;;;;;;28.67;25.67;;;;;19.27;32.98;101867.09;5014136;28;45468;-68
2022/05/01 08:14:30;;;;;;;;;26.33;25.67;;;;;19.40;32.34;101887.09;4995524;28;45743;-68
2022/05/01 08:16:56;;;;;;;;;26.00;22.67;;;;;19.45;32.23;101868.56;5001505;28;45468;-69
2022/05/01 08:22:05;;;;;;;;;23.00;22.67;;;;;20.13;31.56;101871.56;5015397;28;45485;-69
2022/05/01 08:24:32;;;;;;;;;24.67;23.67;;;;;20.21;31.12;101874.22;5006533;28;45379;-69
2022/05/01 08:27:04;;;;;;;;;29.33;27.67;;;;;20.31;31.48;101870.25;4996291;28;45450;-70
2022/05/01 08:29:30;;;;;;;;;27.67;27.00;;;;;20.35;31.55;101879.69;4996159;28;46488;-68
2022/05/01 08:31:55;;;;;;;;;26.33;26.00;;;;;20.52;30.57;101872.31;4996726;28;45233;-72
2022/05/01 08:34:21;;;;;;;;;22.67;21.00;;;;;20.52;30.47;101822.84;5007381;28;45729;-68
2022/05/01 08:36:46;;;;;;;;;26.00;25.33;;;;;21.19;30.16;101866.91;5013051;28;45389;-70
2022/05/01 08:39:11;;;;;;;;;27.00;22.67;;;;;21.09;29.72;101820.41;5002977;28;45924;-69
2022/05/01 08:41:37;;;;;;;;;23.33;22.33;;;;;21.66;29.19;101864.88;4988050;28;45401;-69
2022/05/01 08:44:03;;;;;;;;;25.33;25.00;;;;;21.71;29.01;101813.72;5001291;28;45915;-70
2022/05/01 08:46:40;;;;;;;;;25.33;23.00;;;;;21.74;28.52;101834.97;5011990;28;45522;-71
2022/05/01 08:49:07;;;;;;;;;28.67;24.33;;;;;21.90;27.28;101856.41;5019123;28;46390;-70
2022/05/01 08:51:35;;;;;;;;;25.00;23.67;;;;;21.98;27.11;101848.16;5018211;28;45398;-69
2022/05/01 08:54:04;;;;;;;;;23.67;21.00;;;;;22.11;26.56;101863.75;5010017;28;45555;-71
2022/05/01 08:56:32;;;;;;;;;23.00;23.00;;;;;21.78;26.34;101834.41;4981939;28;45246;-68
2022/05/01 08:58:59;;;;;;;;;25.00;22.33;;;;;21.91;27.40;101858.09;5000658;28;47305;-69
2022/05/01 09:01:24;;;;;;;;;24.33;21.67;;;;;21.98;26.69;101861.69;5018575;28;45495;-71
2022/05/01 09:03:51;;;;;;;;;24.67;23.67;;;;;22.36;26.70;101861.47;5016084;28;45458;-70
2022/05/01 09:06:17;;;;;;;;;20.33;20.33;;;;;22.72;26.61;101864.91;5001242;28;45484;-71
2022/05/01 09:08:42;;;;;;;;;22.67;21.33;;;;;23.37;25.88;101839.25;5017858;28;45476;-71
2022/05/01 09:13:53;;;;;;;;;23.33;23.33;;;;;24.24;23.72;101837.69;5014843;28;45515;-70
2022/05/01 09:16:18;;;;;;;;;20.33;20.33;;;;;24.97;23.10;101834.94;4999686;28;45473;-71
2022/05/01 09:18:45;;;;;;;;;24.33;20.33;;;;;25.17;22.48;101787.59;4997563;28;47752;-71
2022/05/01 09:21:11;;;;;;;;;26.33;21.67;;;;;25.55;22.99;101811.31;5002513;28;45295;-69
2022/05/01 09:23:42;;;;;;;;;29.00;24.33;;;;;25.94;22.18;101823.06;5017664;28;45321;-69
2022/05/01 09:26:10;;;;;;;;;20.33;19.33;;;;;26.24;21.61;101832.28;4999319;28;45389;-70
2022/05/01 09:28:36;;;;;;;;;23.33;21.67;;;;;26.23;20.89;101769.78;4998638;28;47555;-69
2022/05/01 09:31:03;;;;;;;;;21.67;20.33;;;;;27.02;20.87;101820.91;5018199;28;45311;-73
2022/05/01 09:33:29;;;;;;;;;19.33;19.00;;;;;27.45;20.69;101823.56;5017004;28;45482;-70
2022/05/01 09:35:55;;;;;;;;;23.00;22.00;;;;;27.68;19.50;101805.63;4993707;28;45409;-69
2022/05/01 09:38:28;;;;;;;;;18.00;18.00;;;;;28.03;19.09;101787.44;4998997;28;45373;-71
2022/05/01 09:41:03;;;;;;;;;21.33;19.67;;;;;29.34;17.87;101821.72;5001191;28;45521;-70
2022/05/01 09:43:31;;;;;;;;;18.00;18.00;;;;;30.20;16.77;101827.19;5016761;28;45641;-69
2022/05/01 09:46:23;;;;;;;;;23.00;19.00;;;;;30.58;16.27;101812.72;5018907;28;45360;-72
2022/05/01 09:49:09;;;;;;;;;19.00;19.00;;;;;30.93;15.95;101823.44;5018022;28;45817;-71
2022/05/01 09:51:36;;;;;;;;;19.00;19.00;;;;;30.86;16.36;101815.38;5000557;28;45632;-72
2022/05/01 09:54:04;;;;;;;;;19.67;19.67;;;;;30.90;16.18;101818.44;5018060;28;45354;-73
2022/05/01 09:56:44;;;;;;;;;19.00;18.33;;;;;30.14;16.46;101732.19;5018840;28;45471;-72
2022/05/01 09:59:10;;;;;;;;;20.33;19.67;;;;;29.99;16.78;101791.16;5007674;28;45730;-72
2022/05/01 10:01:36;;;;;;;;;26.67;23.33;;;;;28.33;18.31;101795.59;5005620;28;45653;-69
2022/05/01 10:04:02;;;;;;;;;24.33;22.67;;;;;27.22;19.01;101807.03;4997035;28;45558;-70
2022/05/01 10:06:32;;;;;;;;;22.00;22.00;;;;;25.28;20.72;101741.72;4996752;28;45611;-70
2022/05/01 10:08:58;;;;;;;;;19.33;15.00;;;;;24.34;22.09;101801.94;5001670;28;47114;-72
2022/05/01 10:11:24;;;;;;;;;16.67;16.33;;;;;23.63;22.74;101794.31;5016800;28;45413;-69
2022/05/01 10:13:50;;;;;;;;;29.67;20.67;;;;;23.02;23.57;101796.91;5012959;28;45437;-70
2022/05/01 10:16:16;;;;;;;;;18.67;18.67;;;;;23.02;24.02;101815.91;4998537;28;45572;-69
2022/05/01 10:18:44;;;;;;;;;20.00;18.00;;;;;22.42;24.57;101815.47;5006649;28;45818;-71
2022/05/01 10:21:10;;;;;;;;;20.67;20.67;;;;;21.22;25.09;101730.47;5018340;28;45321;-69
2022/05/01 10:23:36;;;;;;;;;22.00;19.67;;;;;21.40;25.78;101801.25;5005724;28;45440;-70
2022/05/01 10:26:24;;;;;;;;;19.00;19.00;;;;;20.61;26.80;101790.16;4999281;28;45484;-69
2022/05/01 10:29:22;;;;;;;;;22.33;19.33;;;;;20.35;27.78;101806.75;4994486;28;46069;-69
2022/05/01 10:32:21;;;;;;;;;22.33;22.00;;;;;20.14;28.27;101790.41;4997762;28;45227;-69
2022/05/01 10:35:23;;;;;;;;;30.33;26.67;;;;;20.06;28.48;101785.06;4992580;28;45384;-68
2022/05/01 10:38:17;;;;;;;;;23.00;20.33;;;;;19.92;27.99;101781.28;5015993;28;45584;-72
2022/05/01 10:40:50;;;;;;;;;24.67;23.33;;;;;19.73;28.79;101779.91;4997882;28;45756;-70
2022/05/01 10:43:22;;;;;;;;;20.33;18.33;;;;;19.17;29.35;101781.00;5002233;28;45491;-70
2022/05/01 10:45:47;;;;;;;;;21.33;21.33;;;;;19.15;29.35;101753.41;5028903;28;45324;-69
2022/05/01 10:48:15;;;;;;;;;22.33;21.67;;;;;19.17;29.21;101767.53;5014514;28;45885;-68
2022/05/01 10:50:41;;;;;;;;;19.67;17.67;;;;;18.65;28.42;101716.06;5017638;28;45889;-70
2022/05/01 10:53:13;;;;;;;;;20.33;18.33;;;;;18.69;29.23;101763.16;5017089;28;45384;-71
2022/05/01 10:55:53;;;;;;;;;22.33;22.00;;;;;18.44;30.39;101771.28;4998674;28;45476;-72
2022/05/01 10:58:26;;;;;;;;;20.67;17.33;;;;;18.46;30.79;101773.78;4999682;28;45641;-70
2022/05/01 11:00:54;;;;;;;;;21.00;20.33;;;;;17.56;30.69;101604.31;5010438;28;46775;-69
2022/05/01 11:03:32;;;;;;;;;21.00;19.67;;;;;18.58;30.38;101709.63;5017398;28;45231;-69
2022/05/01 11:06:04;;;;;;;;;25.33;20.67;;;;;18.94;30.00;101762.06;4993520;28;45342;-76
2022/05/01 11:08:36;;;;;;;;;23.67;20.67;;;;;18.50;30.09;101754.41;4984014;28;45545;-69
2022/05/01 11:11:02;;;;;;;;;22.33;21.00;;;;;18.24;30.60;101757.31;5016916;28;46027;-70
2022/05/01 11:13:33;;;;;;;;;20.00;19.00;;;;;18.33;30.85;101752.75;5013669;28;45415;-70
2022/05/01 11:15:59;;;;;;;;;17.00;15.33;;;;;18.41;30.95;101747.34;4980409;28;45425;-69
2022/05/01 11:18:30;;;;;;;;;19.67;18.67;;;;;18.53;30.76;101732.53;4979713;28;45567;-68
2022/05/01 11:21:16;;;;;;;;;18.00;17.33;;;;;18.68;30.36;101724.63;4997203;28;46112;-68
2022/05/01 11:23:43;;;;;;;;;19.67;18.00;;;;;18.89;30.15;101737.50;4982642;28;45959;-67
2022/05/01 11:26:11;;;;;;;;;21.00;19.00;;;;;18.70;30.89;101727.97;5017099;28;45634;-69
2022/05/01 11:28:52;;;;;;;;;23.00;21.00;;;;;18.71;30.83;101737.72;5015261;28;45508;-69
2022/05/01 11:31:42;;;;;;;;;21.67;17.67;;;;;18.65;30.51;101719.59;5005446;28;46400;-68
2022/05/01 11:34:17;;;;;;;;;13.67;11.00;;;;;18.63;30.47;101715.38;5016918;28;45353;-69